Airfield :
LOGIN :

Register | Disclaimer

   EN    FR    IT 

 










Legend :    VFR   Marginal VFR   IFR   Intensive IFR   Very Intensive IFR
Visi :
Ceiling :
>= 8 km
>= 3000ft
5 to 8 km
1000 to 3000 ft
1500m to 5 km
500 to 1000 ft
800 to 1500m
200 to 500 ft
< 800m
< 200 ft
Symbols :   Thunderstorms  Fog  Heavy snow  Heavy precipitations  Wind > 20 kt
SIGMETs :     Misc.  Thunderstorms  Icing  Turbulence  Mountain Waves  Volcanic Ashes






- Airport Elevation : 33 ft
- IATA code : MHZ


EGUN - RAF Mildenhall

CURRENT METAR :
  • 180449Z 02011KT 8000 -RA BR OVC008 14/14 A2996 RMK AO2A SLP149

EXPIRED METARs :
  • 180356Z 02006KT 4000 -RA BR OVC006 14/14 A2996 RMK AO2A SLP149 P0005 T01430143
  • 180256Z 01006KT 8000 -RA BR OVC006 14/14 A2996 RMK AO2A SLP149 P0001 60003 T01440144 50002
  • 180156Z 36006KT 6000 -RA BR OVC006 15/15 A2996 RMK AO2A DZE24RAB44 SLP148 P0001 T01460146

TAF TAF EGUN
Valid from the 18 at 04:00 until the 19 at 10:00 UTC


180400Z 1804/1910 01009KT 5000 -SHRA BR SCT003 OVC006 QNH2989INS
TEMPO 1804/1808 02012KT 2000 RA BR OVC003
BECMG 1810/1811 03010G15KT 8000 -SHRA BR FEW003 BKN008 OVC012 510008 QNH2986INS
TEMPO 1812/1818 03015G25KT 3200 SHRA BR VCTS SCT008 BKN012 OVC025CB
BECMG 1819/1820 36012KT 5000 -SHRA BR FEW003 BKN006 OVC010 510008 QNH2983INS
BECMG 1822/1823 34009KT 3200 -DZ BR BKN002 OVC005 510008 QNH2986INS
TEMPO 1900/1906 36005KT 0800 DZ FG VV001
BECMG 1906/1907 05009KT 8000 BR FEW004 BKN009 OVC018 510006 QNH2992INS
BECMG 1909/1910 08012KT 9000 BR VCSH SCT009 BKN018 OVC100 510006 QNH2998INS TX16/1812Z TN12/1901Z



MET'MAP, your aeronautical weather chart ! - Copyright ORBIFLY December 2007 - Disclaimer

ORBIFLY MET'MAP TEAM :

Programming & Development : Alexandra Zaïnal
Concept & original design : Baudouin d'Aumeries
Assistance for programming : Marc-Olivier Méhu
Technical & hardware support : Manuel Goepfert

Contact : metmap@orbifly.com




SOURCES & CREDITS :

   NOAA